Time;durP1;ratioP1;P1;durP2;ratioP2;P2;SDS_P1;SDS_P2;PMS_P1;PMS_P2;Temp;Humidity;BMP_temperature;BMP_pressure;BME280_temperature;BME280_humidity;BME280_pressure;Samples;Min_cycle;Max_cycle;Signal;HPM_P1;HPM_P2
2022/04/03 00:01:27;;;;;;;35.97;17.13;;;;;;;38.75;43.67;100829.91;4764693;30;20463;-69
2022/04/03 00:03:53;;;;;;;37.10;16.50;;;;;;;38.62;43.99;100828.06;4749996;30;20433;-70
2022/04/03 00:06:19;;;;;;;41.87;16.00;;;;;;;38.60;43.75;100831.06;4749918;30;20449;-70
2022/04/03 00:08:45;;;;;;;36.47;16.87;;;;;;;38.51;43.66;100832.94;4749992;30;20532;-71
2022/04/03 00:11:11;;;;;;;28.27;12.50;;;;;;;38.49;43.41;100829.75;4749975;30;20436;-71
2022/04/03 00:13:38;;;;;;;45.17;14.03;;;;;;;38.46;43.52;100826.88;4751005;30;20486;-70
2022/04/03 00:16:06;;;;;;;33.37;13.13;;;;;;;38.54;42.88;100826.91;4764670;30;20468;-70
2022/04/03 00:18:33;;;;;;;28.10;11.50;;;;;;;38.55;42.62;100820.38;4764712;30;20429;-70
2022/04/03 00:21:00;;;;;;;34.77;14.83;;;;;;;38.37;42.35;100805.16;4764670;30;20425;-71
2022/04/03 00:23:27;;;;;;;27.97;15.70;;;;;;;38.20;43.57;100813.13;4751188;30;20412;-70
2022/04/03 00:25:53;;;;;;;49.43;18.73;;;;;;;38.32;43.36;100797.16;4749919;30;20417;-71
2022/04/03 00:28:20;;;;;;;41.67;17.93;;;;;;;38.28;44.10;100801.56;4764658;30;20428;-71
2022/04/03 00:30:47;;;;;;;32.83;15.17;;;;;;;38.09;43.57;100797.13;4764637;30;20428;-70
2022/04/03 00:33:14;;;;;;;31.37;15.40;;;;;;;38.12;43.87;100795.69;4764413;30;20421;-70
2022/04/03 00:35:40;;;;;;;36.37;15.50;;;;;;;38.22;44.20;100797.38;4751036;30;20957;-69
2022/04/03 00:38:07;;;;;;;52.27;18.40;;;;;;;38.23;43.27;100782.69;4749835;30;20443;-71
2022/04/03 00:40:33;;;;;;;48.07;17.33;;;;;;;38.09;44.09;100780.88;4764438;30;20437;-71
2022/04/03 00:42:59;;;;;;;59.53;17.33;;;;;;;38.23;43.88;100777.28;4750993;30;20834;-71
2022/04/03 00:45:26;;;;;;;40.53;16.53;;;;;;;38.26;43.56;100777.50;4764434;30;20428;-69
2022/04/03 00:47:54;;;;;;;27.13;15.10;;;;;;;38.43;43.44;100769.47;4751054;30;20898;-71
2022/04/03 00:50:20;;;;;;;41.30;15.97;;;;;;;38.17;44.48;100755.75;4749814;30;20432;-72
2022/04/03 00:52:47;;;;;;;35.40;15.50;;;;;;;38.28;44.23;100750.91;4750998;30;20437;-70
2022/04/03 00:55:13;;;;;;;39.67;16.33;;;;;;;38.23;44.55;100740.16;4749579;30;20527;-69
2022/04/03 00:57:45;;;;;;;33.70;14.97;;;;;;;38.14;43.43;100728.50;4764177;30;20452;-70
2022/04/03 01:00:13;;;;;;;46.77;17.13;;;;;;;37.97;44.68;100722.97;4764506;30;20449;-69
2022/04/03 01:02:40;;;;;;;45.57;17.00;;;;;;;37.97;45.27;100712.13;4752077;30;20479;-70
2022/04/03 01:05:07;;;;;;;28.87;13.10;;;;;;;37.99;43.87;100708.00;4767768;30;20432;-70
2022/04/03 01:07:33;;;;;;;37.93;16.13;;;;;;;37.97;44.62;100704.00;4767604;30;20425;-69
2022/04/03 01:10:00;;;;;;;44.10;16.70;;;;;;;38.04;44.47;100705.16;4767984;30;20437;-71
2022/04/03 01:12:27;;;;;;;39.37;15.90;;;;;;;37.98;43.90;100695.56;4767561;30;20975;-69
2022/04/03 01:14:53;;;;;;;25.63;13.17;;;;;;;37.96;44.27;100697.81;4767176;30;20475;-69
2022/04/03 01:17:19;;;;;;;40.20;17.50;;;;;;;38.04;43.58;100686.22;4767545;30;20528;-70
2022/04/03 01:19:45;;;;;;;41.13;15.03;;;;;;;37.90;43.88;100696.34;4767469;30;20949;-70
2022/04/03 01:22:12;;;;;;;46.53;18.10;;;;;;;37.92;44.40;100694.09;4753787;30;20421;-71
2022/04/03 01:24:43;;;;;;;33.47;15.63;;;;;;;38.08;43.47;100694.53;4767332;30;20498;-72
2022/04/03 01:27:10;;;;;;;32.90;14.70;;;;;;;38.33;43.46;100691.16;4767172;30;20464;-70
2022/04/03 01:29:37;;;;;;;36.27;16.27;;;;;;;38.05;44.49;100687.81;4753747;30;20412;-71
2022/04/03 01:32:03;;;;;;;37.90;17.97;;;;;;;38.05;43.38;100678.88;4767017;30;20425;-70
2022/04/03 01:34:30;;;;;;;26.77;13.80;;;;;;;37.96;43.41;100684.25;4767016;30;20515;-71
2022/04/03 01:36:57;;;;;;;39.13;14.40;;;;;;;38.21;42.98;100682.00;4767047;30;20453;-70
2022/04/03 01:39:24;;;;;;;56.50;19.90;;;;;;;38.50;42.99;100678.78;4753369;30;20466;-72
2022/04/03 01:41:50;;;;;;;44.87;17.13;;;;;;;38.42;43.29;100670.28;4766953;30;20480;-70
2022/04/03 01:44:16;;;;;;;24.67;13.87;;;;;;;38.32;43.20;100667.88;4753519;30;20409;-72
2022/04/03 01:46:43;;;;;;;37.70;15.60;;;;;;;38.52;42.51;100665.72;4752224;30;20429;-70
2022/04/03 01:49:10;;;;;;;32.37;14.87;;;;;;;38.47;42.91;100666.66;4766778;30;20465;-69
2022/04/03 01:51:37;;;;;;;34.03;16.73;;;;;;;38.30;42.73;100661.16;4766861;30;20456;-71
2022/04/03 01:54:03;;;;;;;29.17;14.83;;;;;;;38.35;42.66;100661.81;4766536;30;20992;-71
2022/04/03 01:56:30;;;;;;;37.57;15.00;;;;;;;38.21;42.49;100649.47;4766736;30;20537;-70
2022/04/03 01:58:56;;;;;;;38.13;12.40;;;;;;;37.96;42.45;100650.97;4766690;30;20429;-70
2022/04/03 02:01:22;;;;;;;29.30;13.43;;;;;;;37.95;42.78;100658.28;4766607;30;20445;-70
2022/04/03 02:03:49;;;;;;;26.80;12.53;;;;;;;37.91;43.13;100657.31;4766797;30;20474;-70
2022/04/03 02:06:15;;;;;;;32.07;14.27;;;;;;;38.22;42.97;100662.72;4753088;30;20432;-69
2022/04/03 02:08:43;;;;;;;35.30;16.60;;;;;;;37.98;42.35;100665.78;4767019;30;20429;-69
2022/04/03 02:11:09;;;;;;;32.53;13.77;;;;;;;37.96;42.58;100668.00;4753010;30;20918;-69
2022/04/03 02:13:35;;;;;;;34.53;12.77;;;;;;;38.00;41.98;100666.28;4765998;30;20458;-69
2022/04/03 02:16:01;;;;;;;29.07;12.77;;;;;;;38.30;41.84;100658.47;4766318;30;20963;-69
2022/04/03 02:18:27;;;;;;;38.60;16.80;;;;;;;38.33;42.05;100668.69;4766451;30;20960;-69
2022/04/03 02:20:53;;;;;;;34.87;12.87;;;;;;;38.43;41.66;100673.81;4766211;30;20436;-72
2022/04/03 02:23:20;;;;;;;47.50;18.00;;;;;;;38.40;41.81;100671.72;4752209;30;20422;-70
2022/04/03 02:25:49;;;;;;;47.30;16.93;;;;;;;38.32;42.20;100673.31;4768250;30;20429;-69
2022/04/03 02:28:16;;;;;;;33.00;14.63;;;;;;;38.48;41.76;100675.56;4751287;30;20854;-69
2022/04/03 02:30:43;;;;;;;31.90;16.90;;;;;;;38.41;41.72;100676.03;4736661;30;20497;-69
2022/04/03 02:33:09;;;;;;;34.23;12.53;;;;;;;38.23;42.21;100683.25;4766170;30;20816;-71
2022/04/03 02:35:35;;;;;;;29.30;13.90;;;;;;;38.38;41.80;100672.06;4766007;30;20916;-71
2022/04/03 02:38:01;;;;;;;27.83;13.40;;;;;;;38.54;42.11;100671.59;4751117;30;21042;-70
2022/04/03 02:40:27;;;;;;;28.13;13.67;;;;;;;38.34;42.48;100678.41;4766019;30;20835;-69
2022/04/03 02:42:54;;;;;;;29.50;14.90;;;;;;;38.20;42.24;100675.78;4766069;30;20557;-69
2022/04/03 02:45:20;;;;;;;34.90;14.67;;;;;;;38.42;42.22;100677.63;4766067;30;20522;-69
2022/04/03 02:47:54;;;;;;;38.47;15.20;;;;;;;37.89;43.13;100673.06;4752403;30;20409;-69
2022/04/03 02:50:22;;;;;;;44.10;15.37;;;;;;;38.24;42.67;100678.63;4752404;30;20415;-71
2022/04/03 02:52:50;;;;;;;32.27;12.90;;;;;;;38.22;42.59;100678.97;4751150;30;20465;-72
2022/04/03 02:55:17;;;;;;;35.93;16.37;;;;;;;38.35;42.97;100685.41;4750831;30;20516;-70
2022/04/03 02:57:44;;;;;;;40.53;16.13;;;;;;;38.42;42.59;100689.25;4750917;30;20424;-70
2022/04/03 03:00:17;;;;;;;33.53;15.23;;;;;;;38.49;42.56;100683.41;4765811;30;20491;-71
2022/04/03 03:02:44;;;;;;;27.13;13.43;;;;;;;38.29;42.83;100694.78;4750899;30;20491;-71
2022/04/03 03:05:13;;;;;;;31.13;13.60;;;;;;;38.28;42.62;100691.28;4750847;30;20418;-71
2022/04/03 03:07:41;;;;;;;37.90;15.83;;;;;;;38.04;43.32;100702.47;4750984;30;20401;-70
2022/04/03 03:10:19;;;;;;;33.50;15.17;;;;;;;37.99;43.74;100702.59;4750609;30;20474;-71
2022/04/03 03:12:46;;;;;;;29.83;13.20;;;;;;;37.78;43.61;100710.41;4752010;30;20409;-71
2022/04/03 03:15:13;;;;;;;35.70;12.90;;;;;;;38.06;43.31;100713.81;4751897;30;20455;-71
2022/04/03 03:17:39;;;;;;;46.17;16.37;;;;;;;38.22;43.48;100713.38;4750689;30;20511;-71
2022/04/03 03:20:06;;;;;;;40.03;19.17;;;;;;;38.23;43.97;100710.34;4765395;30;20414;-71
2022/04/03 03:22:33;;;;;;;39.37;15.97;;;;;;;38.25;43.28;100720.91;4765510;30;20425;-71
2022/04/03 03:25:00;;;;;;;47.57;17.80;;;;;;;38.26;43.68;100723.31;4749929;30;20428;-71
2022/04/03 03:27:26;;;;;;;25.47;14.23;;;;;;;38.29;43.59;100730.00;4750560;30;20439;-71
2022/04/03 03:29:53;;;;;;;44.83;16.37;;;;;;;37.79;44.53;100732.84;4750639;30;20574;-69
2022/04/03 03:32:20;;;;;;;32.13;13.07;;;;;;;37.82;44.23;100726.88;4765173;30;20471;-69
2022/04/03 03:34:46;;;;;;;42.70;14.17;;;;;;;37.84;44.80;100730.84;4751461;30;20444;-69
2022/04/03 03:37:12;;;;;;;31.43;12.90;;;;;;;37.88;44.32;100731.84;4764661;30;20487;-69
2022/04/03 03:39:38;;;;;;;36.70;15.10;;;;;;;38.01;43.49;100735.59;4751546;30;20401;-71
2022/04/03 03:42:04;;;;;;;38.60;15.20;;;;;;;38.13;44.15;100733.09;4764723;30;20429;-69
2022/04/03 03:44:30;;;;;;;32.47;14.03;;;;;;;38.29;44.09;100738.16;4765047;30;20421;-70
2022/04/03 03:46:56;;;;;;;21.90;12.23;;;;;;;38.14;44.20;100742.84;4764608;30;20413;-70
2022/04/03 03:49:23;;;;;;;34.83;16.00;;;;;;;38.01;44.42;100732.09;4751380;30;20541;-70
2022/04/03 03:51:49;;;;;;;32.43;14.70;;;;;;;38.29;43.89;100732.72;4764959;30;20843;-69
2022/04/03 03:54:15;;;;;;;36.37;16.23;;;;;;;38.29;43.76;100730.81;4751228;30;20473;-71
2022/04/03 03:56:41;;;;;;;45.27;14.80;;;;;;;38.03;44.38;100738.78;4751359;30;20535;-70
2022/04/03 03:59:08;;;;;;;48.20;15.00;;;;;;;38.01;43.80;100734.78;4764701;30;20492;-70
2022/04/03 04:01:34;;;;;;;30.23;13.57;;;;;;;37.85;44.06;100731.66;4750084;30;20453;-71
2022/04/03 04:04:01;;;;;;;25.20;14.13;;;;;;;38.09;43.53;100736.75;4764917;30;21050;-71
2022/04/03 04:06:27;;;;;;;34.00;13.87;;;;;;;38.23;43.82;100732.03;4750092;30;20443;-70
2022/04/03 04:08:53;;;;;;;34.17;14.77;;;;;;;38.29;43.90;100738.94;4750110;30;20440;-69
2022/04/03 04:11:19;;;;;;;42.90;17.50;;;;;;;38.25;43.70;100748.78;4749898;30;20449;-69
2022/04/03 04:13:45;;;;;;;34.87;13.07;;;;;;;38.10;44.35;100741.03;4749884;30;20421;-70
2022/04/03 04:16:13;;;;;;;42.60;15.73;;;;;;;38.31;43.79;100744.06;4751161;30;20453;-69
2022/04/03 04:18:39;;;;;;;36.00;16.93;;;;;;;38.24;43.76;100746.38;4764629;30;20453;-69
2022/04/03 04:21:06;;;;;;;42.43;16.50;;;;;;;38.28;44.03;100741.97;4765109;30;20429;-69
2022/04/03 04:23:32;;;;;;;39.00;15.83;;;;;;;38.11;43.13;100756.97;4750449;30;20437;-69
2022/04/03 04:25:58;;;;;;;40.90;14.87;;;;;;;38.36;42.91;100752.03;4751546;30;20402;-70
2022/04/03 04:28:25;;;;;;;35.90;13.63;;;;;;;38.11;43.93;100748.84;4750972;30;20409;-71
2022/04/03 04:30:51;;;;;;;37.93;18.63;;;;;;;38.43;43.44;100765.97;4764703;30;20545;-72
2022/04/03 04:33:17;;;;;;;51.60;15.83;;;;;;;38.00;43.85;100760.25;4764678;30;20440;-69
2022/04/03 04:35:43;;;;;;;38.07;14.20;;;;;;;37.89;44.02;100768.66;4752002;30;20464;-70
2022/04/03 04:38:09;;;;;;;36.77;17.17;;;;;;;37.88;44.45;100779.78;4738760;30;20469;-70
2022/04/03 04:40:36;;;;;;;33.67;14.40;;;;;;;37.88;44.27;100768.97;4754519;30;20501;-70
2022/04/03 04:43:02;;;;;;;36.73;14.97;;;;;;;37.89;44.45;100778.69;4753234;30;20429;-70
2022/04/03 04:45:28;;;;;;;49.03;15.80;;;;;;;37.99;44.04;100778.41;4768120;30;20421;-70
2022/04/03 04:48:02;;;;;;;39.13;14.13;;;;;;;37.96;43.93;100770.91;4768006;30;20428;-70
2022/04/03 04:50:31;;;;;;;41.97;12.30;;;;;;;38.00;43.85;100779.22;4767957;30;20432;-70
2022/04/03 04:52:58;;;;;;;35.23;14.43;;;;;;;38.05;43.95;100774.47;4767879;30;20424;-71
2022/04/03 04:55:25;;;;;;;40.13;16.60;;;;;;;37.77;44.37;100783.81;4752759;30;20488;-70
2022/04/03 04:57:54;;;;;;;38.30;16.90;;;;;;;37.79;44.00;100789.72;4767806;30;20431;-70
2022/04/03 05:00:21;;;;;;;45.10;18.83;;;;;;;37.77;44.35;100783.81;4767808;30;20433;-70
2022/04/03 05:02:48;;;;;;;42.07;15.73;;;;;;;37.89;44.16;100789.50;4753029;30;20980;-70
2022/04/03 05:05:19;;;;;;;47.60;13.40;;;;;;;37.87;43.77;100792.50;4767649;30;20462;-70
2022/04/03 05:07:45;;;;;;;37.27;14.90;;;;;;;37.86;44.28;100799.03;4724191;30;20429;-69
2022/04/03 05:10:14;;;;;;;31.20;14.37;;;;;;;37.86;44.27;100803.66;4738288;30;20425;-69
2022/04/03 05:12:40;;;;;;;39.83;19.07;;;;;;;38.00;44.09;100796.28;4753003;30;20422;-70
2022/04/03 05:15:10;;;;;;;39.47;12.27;;;;;;;37.95;43.80;100801.81;4752714;30;20468;-69
2022/04/03 05:17:37;;;;;;;31.37;15.87;;;;;;;37.93;44.08;100809.44;4752794;30;20959;-69
2022/04/03 05:20:03;;;;;;;30.90;15.27;;;;;;;38.04;44.09;100801.88;4767535;30;20428;-69
2022/04/03 05:22:30;;;;;;;37.23;15.87;;;;;;;38.12;43.96;100806.53;4767433;30;20964;-69
2022/04/03 05:24:56;;;;;;;30.50;12.37;;;;;;;37.85;44.55;100805.56;4767484;30;20452;-69
2022/04/03 05:27:22;;;;;;;43.17;18.67;;;;;;;38.10;44.76;100814.19;4752518;30;20467;-71
2022/04/03 05:29:48;;;;;;;36.93;15.03;;;;;;;38.02;44.90;100809.50;4767452;30;20421;-71
2022/04/03 05:32:15;;;;;;;36.37;18.80;;;;;;;37.75;44.96;100815.78;4753862;30;20406;-71
2022/04/03 05:34:41;;;;;;;36.73;13.17;;;;;;;37.75;45.11;100807.66;4752274;30;20433;-69
2022/04/03 05:37:07;;;;;;;47.70;15.73;;;;;;;37.78;44.86;100820.59;4753762;30;20784;-69
2022/04/03 05:39:33;;;;;;;38.33;15.10;;;;;;;37.71;45.62;100806.69;4767210;30;20433;-71
2022/04/03 05:41:59;;;;;;;39.23;16.37;;;;;;;37.63;45.20;100811.72;4753649;30;20479;-71
2022/04/03 05:44:25;;;;;;;46.27;14.93;;;;;;;37.80;44.94;100812.97;4753649;30;20433;-70
2022/04/03 05:46:52;;;;;;;35.07;16.10;;;;;;;37.99;44.56;100813.63;4752786;30;21031;-69
2022/04/03 05:49:18;;;;;;;46.27;16.17;;;;;;;38.16;44.62;100819.16;4752189;30;20786;-69
2022/04/03 05:51:44;;;;;;;32.13;14.60;;;;;;;38.16;44.58;100821.06;4751628;30;20457;-69
2022/04/03 05:54:10;;;;;;;27.20;12.03;;;;;;;37.89;45.25;100817.38;4737462;30;20473;-69
2022/04/03 05:56:37;;;;;;;38.63;16.20;;;;;;;38.00;44.33;100826.06;4766424;30;20830;-69
2022/04/03 05:59:03;;;;;;;38.90;18.23;;;;;;;38.10;44.22;100835.84;4753299;30;20409;-69
2022/04/03 06:01:29;;;;;;;39.60;12.90;;;;;;;37.98;45.14;100832.88;4753168;30;20502;-70
2022/04/03 06:03:57;;;;;;;48.00;12.80;;;;;;;37.59;45.56;100842.41;4751984;30;21010;-69
2022/04/03 06:06:23;;;;;;;33.87;15.27;;;;;;;37.80;45.66;100842.75;4753169;30;20444;-69
2022/04/03 06:08:49;;;;;;;28.10;14.50;;;;;;;37.85;45.09;100848.06;4766796;30;20443;-71
2022/04/03 06:11:15;;;;;;;30.90;14.50;;;;;;;38.14;44.68;100845.75;4752987;30;20532;-69
2022/04/03 06:13:41;;;;;;;47.37;15.87;;;;;;;38.00;45.30;100861.28;4751760;30;20817;-69
2022/04/03 06:16:07;;;;;;;40.47;13.10;;;;;;;37.73;45.39;100855.91;4751478;30;20944;-69
2022/04/03 06:18:33;;;;;;;29.50;13.40;;;;;;;37.89;45.17;100863.41;4766492;30;20950;-70
2022/04/03 06:20:59;;;;;;;30.90;13.10;;;;;;;37.72;45.77;100870.56;4751861;30;21019;-69
2022/04/03 06:23:25;;;;;;;42.73;13.90;;;;;;;37.97;45.91;100872.72;4766437;30;20975;-69
2022/04/03 06:25:56;;;;;;;34.30;13.40;;;;;;;37.96;45.99;100875.72;4766305;30;20433;-69
2022/04/03 06:28:22;;;;;;;40.00;13.67;;;;;;;37.83;45.88;100877.38;4752815;30;20413;-71
2022/04/03 06:30:49;;;;;;;37.67;14.17;;;;;;;37.99;45.25;100880.53;4752833;30;20422;-72
2022/04/03 06:33:17;;;;;;;31.47;12.87;;;;;;;38.00;45.13;100884.81;4766311;30;20478;-70
2022/04/03 06:35:44;;;;;;;36.03;16.53;;;;;;;38.01;44.73;100889.97;4752435;30;20449;-69
2022/04/03 06:38:13;;;;;;;39.97;15.17;;;;;;;37.97;45.26;100899.78;4751446;30;20788;-69
2022/04/03 06:40:59;;;;;;;27.43;13.50;;;;;;;38.06;45.06;100905.28;4766176;30;20413;-69
2022/04/03 06:43:27;;;;;;;49.37;16.30;;;;;;;37.90;46.30;100910.25;4752501;30;20456;-70
2022/04/03 06:45:54;;;;;;;27.60;14.37;;;;;;;38.05;45.71;100912.59;4765987;30;20425;-69
2022/04/03 06:48:21;;;;;;;32.27;16.37;;;;;;;37.63;45.78;100922.72;4751437;30;20440;-69
2022/04/03 06:50:47;;;;;;;26.97;12.50;;;;;;;37.70;45.22;100924.19;4765168;30;20428;-69
2022/04/03 06:53:13;;;;;;;43.60;17.60;;;;;;;37.72;45.68;100927.41;4736029;30;20433;-69
2022/04/03 06:55:39;;;;;;;29.57;16.43;;;;;;;37.94;45.16;100927.50;4751091;30;20469;-69
2022/04/03 06:58:07;;;;;;;38.40;15.70;;;;;;;37.74;46.19;100936.81;4750899;30;20495;-71
2022/04/03 07:00:35;;;;;;;58.60;17.30;;;;;;;37.94;45.45;100932.09;4765846;30;20425;-69
2022/04/03 07:03:01;;;;;;;39.97;15.93;;;;;;;37.86;45.21;100939.81;4736083;30;20421;-69
2022/04/03 07:05:27;;;;;;;27.83;13.70;;;;;;;38.03;45.21;100941.91;4765266;30;20520;-69
2022/04/03 07:07:53;;;;;;;26.60;13.70;;;;;;;38.05;44.85;100944.28;4765775;30;20501;-69
2022/04/03 07:10:20;;;;;;;43.80;16.80;;;;;;;38.36;44.68;100949.84;4750229;30;20433;-71
2022/04/03 07:12:46;;;;;;;43.50;18.90;;;;;;;38.48;44.88;100941.16;4749121;30;20461;-69
2022/04/03 07:15:13;;;;;;;38.07;14.47;;;;;;;38.31;44.55;100947.28;4763915;30;20504;-71
2022/04/03 07:17:43;;;;;;;42.23;15.03;;;;;;;38.26;44.43;100944.66;4750775;30;20566;-71
2022/04/03 07:20:13;;;;;;;39.83;14.43;;;;;;;38.52;44.53;100953.00;4736209;30;20472;-71
2022/04/03 07:22:41;;;;;;;51.80;17.53;;;;;;;38.44;44.91;100939.09;4750631;30;20444;-71
2022/04/03 07:25:08;;;;;;;42.33;14.90;;;;;;;38.38;44.88;100959.28;4735043;30;20401;-70
2022/04/03 07:27:35;;;;;;;41.87;16.00;;;;;;;38.50;45.07;100956.03;4734270;30;20440;-69
2022/04/03 07:30:01;;;;;;;32.73;15.23;;;;;;;38.17;44.88;100948.06;4748772;30;20440;-69
2022/04/03 07:32:27;;;;;;;36.90;15.10;;;;;;;38.18;45.18;100954.28;4764461;30;20436;-69
2022/04/03 07:34:53;;;;;;;38.10;15.40;;;;;;;37.98;45.94;100955.56;4749506;30;20433;-69
2022/04/03 07:37:19;;;;;;;28.33;13.10;;;;;;;38.11;45.84;100959.31;4764139;30;20460;-70
2022/04/03 07:39:45;;;;;;;30.00;13.63;;;;;;;38.19;45.68;100966.75;4749935;30;20520;-72
2022/04/03 07:42:11;;;;;;;32.10;14.60;;;;;;;38.33;45.70;100972.16;4750045;30;20433;-69
2022/04/03 07:44:37;;;;;;;37.20;15.97;;;;;;;38.39;45.39;100976.34;4749925;30;20934;-72
2022/04/03 07:47:05;;;;;;;43.50;15.23;;;;;;;38.27;45.33;100970.66;4749565;30;20429;-69
2022/04/03 07:49:31;;;;;;;36.07;15.93;;;;;;;38.39;45.06;100965.50;4750364;30;20421;-70
2022/04/03 07:51:57;;;;;;;32.83;14.20;;;;;;;38.26;45.22;100966.34;4765014;30;20817;-71
2022/04/03 07:54:23;;;;;;;43.03;13.63;;;;;;;38.30;45.40;100962.72;4746949;30;21024;-70
2022/04/03 07:56:49;;;;;;;33.47;13.90;;;;;;;38.24;45.67;100971.22;4764730;30;20479;-72
2022/04/03 07:59:16;;;;;;;37.67;12.33;;;;;;;38.46;45.22;100982.13;4765014;30;20537;-69
2022/04/03 08:01:42;;;;;;;41.70;15.40;;;;;;;38.41;44.82;100982.25;4751219;30;20452;-72
2022/04/03 08:04:10;;;;;;;39.10;14.50;;;;;;;38.27;45.24;100978.78;4764445;30;20860;-70
2022/04/03 08:06:37;;;;;;;36.20;17.83;;;;;;;38.29;45.37;100976.56;4764373;30;20417;-71
2022/04/03 08:09:03;;;;;;;54.60;18.07;;;;;;;38.24;45.63;100984.78;4742412;30;20523;-70
2022/04/03 08:11:29;;;;;;;33.83;14.67;;;;;;;38.39;45.29;100984.47;4755328;30;20460;-70
2022/04/03 08:13:55;;;;;;;42.17;13.67;;;;;;;38.52;44.84;100993.66;4755008;30;20448;-71
2022/04/03 08:16:21;;;;;;;35.97;15.97;;;;;;;38.42;45.02;100995.50;4755359;30;20476;-71
2022/04/03 08:18:47;;;;;;;40.67;17.67;;;;;;;38.38;45.12;101005.34;4765344;30;20898;-70
2022/04/03 08:21:13;;;;;;;33.93;12.50;;;;;;;38.38;45.19;101009.97;4753516;30;20425;-69
2022/04/03 08:23:39;;;;;;;32.63;13.63;;;;;;;38.39;44.77;101006.97;4755438;30;20527;-71
2022/04/03 08:26:05;;;;;;;31.10;11.63;;;;;;;38.51;44.53;101001.00;4746615;30;20486;-71
2022/04/03 08:28:31;;;;;;;32.33;13.93;;;;;;;38.44;44.70;101012.25;4769970;30;20941;-71
2022/04/03 08:30:57;;;;;;;43.90;13.47;;;;;;;38.56;44.65;101019.06;4755110;30;20436;-69
2022/04/03 08:33:23;;;;;;;53.07;16.40;;;;;;;38.37;45.31;101011.09;4755039;30;20620;-71
2022/04/03 08:35:51;;;;;;;37.90;14.23;;;;;;;38.40;45.26;101018.59;4747928;30;20469;-70
2022/04/03 08:38:18;;;;;;;39.43;15.20;;;;;;;38.41;45.14;101018.28;4769224;30;20502;-70
2022/04/03 08:40:44;;;;;;;41.30;16.73;;;;;;;38.50;45.07;101017.56;4751505;30;20476;-70
2022/04/03 08:43:11;;;;;;;23.43;12.20;;;;;;;38.62;44.68;101017.84;4752289;30;20440;-70
2022/04/03 08:45:38;;;;;;;33.73;13.07;;;;;;;38.69;44.52;101026.34;4770637;30;20953;-70
2022/04/03 08:48:07;;;;;;;59.67;17.70;;;;;;;38.76;44.38;101028.63;4770018;30;20463;-70
2022/04/03 08:50:38;;;;;;;40.33;15.73;;;;;;;38.60;44.45;101033.59;4755414;30;20494;-70
2022/04/03 08:53:07;;;;;;;36.30;15.93;;;;;;;38.58;44.42;101035.81;4754098;30;20421;-71
2022/04/03 08:55:34;;;;;;;36.40;15.47;;;;;;;38.80;44.14;101033.16;4769406;30;20480;-72
2022/04/03 08:58:02;;;;;;;38.77;17.07;;;;;;;38.76;43.98;101039.50;4754037;30;20502;-72
2022/04/03 09:00:31;;;;;;;40.70;16.10;;;;;;;38.70;44.22;101042.28;4756821;30;20803;-72
2022/04/03 09:02:58;;;;;;;40.77;18.50;;;;;;;38.68;43.88;101039.09;4755614;30;20429;-72
2022/04/03 09:05:35;;;;;;;40.20;16.30;;;;;;;38.92;43.70;101036.09;4755561;30;20428;-72
2022/04/03 09:08:01;;;;;;;42.10;18.43;;;;;;;38.73;44.09;101040.09;4755514;30;20436;-72
2022/04/03 09:10:28;;;;;;;44.70;19.03;;;;;;;38.83;43.89;101035.22;4770283;30;20462;-71
2022/04/03 09:12:55;;;;;;;39.63;15.77;;;;;;;38.99;43.67;101037.59;4754212;30;20425;-72
2022/04/03 09:15:23;;;;;;;36.60;16.57;;;;;;;38.83;43.75;101046.06;4753796;30;20460;-72
2022/04/03 09:17:52;;;;;;;46.50;17.87;;;;;;;39.08;43.40;101038.44;4768714;30;20948;-73
2022/04/03 09:20:20;;;;;;;39.17;17.80;;;;;;;38.93;43.77;101039.63;4755043;30;20772;-72
2022/04/03 09:22:58;;;;;;;48.47;20.50;;;;;;;38.93;44.41;101042.31;4765503;30;20432;-76
2022/04/03 09:25:30;;;;;;;49.07;21.90;;;;;;;39.12;43.16;101042.13;4750353;30;20517;-73
2022/04/03 09:28:01;;;;;;;48.47;16.50;;;;;;;39.01;43.69;101054.34;4766718;30;20421;-72
2022/04/03 09:30:43;;;;;;;48.37;18.40;;;;;;;39.18;43.33;101047.16;4741070;30;20440;-71
2022/04/03 09:33:11;;;;;;;50.37;20.60;;;;;;;39.01;43.51;101051.63;4734927;30;20422;-72
2022/04/03 09:35:54;;;;;;;119.73;113.97;;;;;;;39.17;43.86;101045.53;4734532;30;20461;-73
2022/04/03 09:38:21;;;;;;;1114.07;966.37;;;;;;;39.43;42.87;101040.25;4734836;30;20426;-71
2022/04/03 09:40:49;;;;;;;578.67;551.07;;;;;;;39.73;41.93;101046.78;4719853;30;20441;-72
2022/04/03 09:43:22;;;;;;;722.37;658.63;;;;;;;39.91;42.09;101035.97;4749459;30;20502;-73
2022/04/03 09:45:50;;;;;;;458.93;424.07;;;;;;;39.88;40.95;101036.59;4736598;30;20457;-73
2022/04/03 09:48:34;;;;;;;164.10;143.80;;;;;;;39.81;41.36;101033.53;4720157;30;20464;-75
2022/04/03 09:51:02;;;;;;;391.27;364.93;;;;;;;39.76;41.32;101029.84;4734348;30;20842;-71
2022/04/03 09:53:29;;;;;;;518.60;493.87;;;;;;;39.69;41.02;101029.50;4741907;30;20433;-73
2022/04/03 09:55:56;;;;;;;674.03;591.33;;;;;;;39.60;41.80;101036.00;4766990;30;20476;-74
2022/04/03 09:58:23;;;;;;;131.80;118.87;;;;;;;39.54;41.71;101032.63;4752605;30;20440;-71
2022/04/03 10:00:49;;;;;;;259.63;199.00;;;;;;;39.28;42.06;101029.78;4753231;30;20441;-69
2022/04/03 10:03:16;;;;;;;258.40;186.00;;;;;;;39.32;42.04;101029.97;4751829;30;20425;-70
2022/04/03 10:05:43;;;;;;;109.27;73.37;;;;;;;39.24;41.89;101031.53;4766283;30;20463;-71
2022/04/03 10:08:10;;;;;;;102.07;56.70;;;;;;;39.17;42.05;101023.84;4748700;30;20423;-72
2022/04/03 10:10:37;;;;;;;96.43;52.97;;;;;;;39.18;41.94;101019.22;4735056;30;20433;-70
2022/04/03 10:13:04;;;;;;;259.43;190.03;;;;;;;39.35;41.39;101021.19;4751656;30;20945;-74
2022/04/03 10:15:30;;;;;;;244.93;180.73;;;;;;;39.40;41.48;101015.63;4766219;30;21029;-69
2022/04/03 10:17:56;;;;;;;53.13;29.57;;;;;;;39.43;41.74;101013.09;4766215;30;20803;-71
2022/04/03 10:20:30;;;;;;;53.23;25.93;;;;;;;39.30;41.42;101016.72;4751703;30;20867;-72
2022/04/03 10:23:03;;;;;;;72.03;30.50;;;;;;;39.12;41.84;101009.56;4744429;30;20436;-71
2022/04/03 10:25:36;;;;;;;68.63;36.80;;;;;;;39.37;42.18;101017.06;4765669;30;20486;-73
2022/04/03 10:28:05;;;;;;;165.67;88.00;;;;;;;39.42;42.58;101013.44;4752748;30;20405;-70
2022/04/03 10:30:42;;;;;;;97.57;43.97;;;;;;;39.42;42.10;101008.00;4748561;30;20476;-77
2022/04/03 10:33:20;;;;;;;121.30;57.67;;;;;;;39.32;41.63;101002.84;4733652;30;20422;-71
2022/04/03 10:36:03;;;;;;;99.40;39.67;;;;;;;39.40;41.75;101002.06;4743406;30;20556;-71
2022/04/03 10:38:42;;;;;;;45.43;18.23;;;;;;;39.40;41.44;101002.06;4720958;30;20429;-69
2022/04/03 10:41:34;;;;;;;61.77;21.23;;;;;;;39.36;42.18;101003.81;4733581;30;20544;-71
2022/04/03 10:44:24;;;;;;;63.33;22.00;;;;;;;39.31;41.63;100995.81;4734920;30;20398;-70
2022/04/03 10:47:03;;;;;;;66.47;23.07;;;;;;;39.30;41.59;100995.00;4733483;30;20481;-70
2022/04/03 10:49:46;;;;;;;83.97;39.90;;;;;;;39.31;41.85;100996.59;4733657;30;20452;-72
2022/04/03 10:52:39;;;;;;;62.73;27.90;;;;;;;39.35;41.43;100986.75;4748919;30;20461;-71
2022/04/03 10:55:26;;;;;;;69.87;32.23;;;;;;;39.60;40.98;100985.25;4764453;30;20476;-71
2022/04/03 10:58:03;;;;;;;47.67;22.17;;;;;;;39.65;40.97;100995.16;4756046;30;20428;-71
2022/04/03 11:00:34;;;;;;;60.30;28.37;;;;;;;39.67;41.36;100987.50;4765100;30;20428;-70
2022/04/03 11:03:18;;;;;;;61.50;20.50;;;;;;;39.50;41.90;100988.22;4750478;30;20952;-69
2022/04/03 11:05:47;;;;;;;42.90;23.50;;;;;;;39.51;41.71;100984.38;4764373;30;20804;-72
2022/04/03 11:08:13;;;;;;;52.63;17.87;;;;;;;39.42;42.21;100986.28;4750364;30;20428;-69
2022/04/03 11:10:58;;;;;;;56.53;25.00;;;;;;;39.55;41.64;100977.22;4743159;30;20429;-71
2022/04/03 11:13:39;;;;;;;53.40;18.40;;;;;;;39.44;41.79;100968.56;4750800;30;20416;-69